Time;durP1;ratioP1;P1;durP2;ratioP2;P2;SDS_P1;SDS_P2;PMS_P1;PMS_P2;Temp;Humidity;BMP_temperature;BMP_pressure;BME280_temperature;BME280_humidity;BME280_pressure;Samples;Min_cycle;Max_cycle;Signal;HPM_P1;HPM_P2
2023/02/13 02:31:16;;;;;;;33.05;22.02;;;6.30;99.90;;;;;;6306487;22;20086;-82
2023/02/13 02:34:30;;;;;;;32.40;22.17;;;6.30;99.90;;;;;;4954925;23;28032568;-81
2023/02/13 02:38:03;;;;;;;29.88;22.05;;;6.30;99.90;;;;;;6102514;23;20021;-81
2023/02/13 02:41:44;;;;;;;29.45;21.20;;;6.30;99.90;;;;;;6088970;23;20358;-81
2023/02/13 02:44:35;;;;;;;30.05;21.15;;;6.40;99.90;;;;;;6043668;23;20054;-81
2023/02/13 02:50:43;;;;;;;28.95;21.30;;;6.50;99.90;;;;;;5977948;24;20020;-81
2023/02/13 02:53:43;;;;;;;31.38;21.23;;;6.30;99.90;;;;;;5954863;24;20103;-81
2023/02/13 02:56:36;;;;;;;29.83;21.27;;;6.20;99.90;;;;;;5931761;24;20016;-80
2023/02/13 06:19:27;;;;;;;35.75;21.73;;;5.90;99.90;;;;;;6001788;22;6597798;-82
2023/02/13 06:22:54;;;;;;;36.42;22.13;;;6.00;99.90;;;;;;6006830;23;20091;-82
2023/02/13 06:26:00;;;;;;;32.80;21.33;;;5.80;99.90;;;;;;5979138;23;20352;-81
2023/02/13 06:47:02;;;;;;;32.42;21.27;;;5.90;99.90;;;;;;6014416;23;20023;-82
2023/02/13 06:50:23;;;;;;;;;;;;;;;;;;;;;
2023/02/13 07:04:29;;;;;;;41.70;21.65;;;6.00;99.90;;;;;;6064814;23;20079;-82
2023/02/13 07:07:23;;;;;;;34.97;22.40;;;6.00;99.90;;;;;;6053101;23;20029;-81
2023/02/13 07:09:48;;;;;;;35.83;21.80;;;6.10;99.90;;;;;;6012875;23;20102;-83
2023/02/13 07:16:48;;;;;;;;;;;;;;;;;;;;;
2023/02/13 07:20:39;;;;;;;;;;;;;;;;;;;;;
2023/02/13 07:24:04;;;;;;;35.33;20.98;;;5.80;99.90;;;;;;5996401;23;20034;-81
2023/02/13 07:26:56;;;;;;;32.55;21.20;;;6.00;99.90;;;;;;5922934;23;20017;-81
2023/02/13 07:29:56;;;;;;;33.35;21.13;;;5.90;99.90;;;;;;6002554;23;20136;-81
2023/02/13 07:32:50;;;;;;;33.75;22.08;;;6.10;99.90;;;;;;5978941;23;20020;-81
2023/02/13 07:35:40;;;;;;;;;;;;;;;;;;;;;
2023/02/13 07:41:55;;;;;;;32.08;20.77;;;6.10;99.90;;;;;;6023671;23;20392;-84
2023/02/13 07:44:39;;;;;;;31.70;21.55;;;6.00;99.90;;;;;;6028726;23;20026;-81
2023/02/13 07:47:34;;;;;;;32.33;21.58;;;6.10;99.90;;;;;;6030525;23;20094;-82
2023/02/13 07:53:40;;;;;;;33.05;22.02;;;6.00;99.90;;;;;;5977345;23;20034;-81
2023/02/13 07:56:25;;;;;;;33.60;20.63;;;6.10;99.90;;;;;;6016711;23;20018;-81
2023/02/13 07:58:50;;;;;;;37.40;20.83;;;6.20;99.90;;;;;;6033962;23;20031;-83
2023/02/13 08:05:55;;;;;;;33.13;20.58;;;6.20;99.90;;;;;;6005224;23;20064;-81
2023/02/13 08:20:35;;;;;;;29.55;20.52;;;6.40;99.90;;;;;;6028827;23;20098;-81
2023/02/13 08:24:34;;;;;;;;;;;;;;;;;;;;;
2023/02/13 08:37:40;;;;;;;33.70;20.64;;;6.30;99.90;;;;;;6260893;22;3828059;-83
2023/02/13 08:40:09;;;;;;;31.73;20.48;;;6.50;99.90;;;;;;6167992;23;20298;-84
2023/02/13 08:47:38;;;;;;;32.58;20.42;;;6.50;99.90;;;;;;6216110;23;20843;-81
2023/02/13 08:51:04;;;;;;;31.23;20.65;;;6.50;99.90;;;;;;5925966;24;20354;-80
2023/02/13 09:05:36;;;;;;;;;;;;;;;;;;;;;
2023/02/13 09:09:03;;;;;;;34.25;20.77;;;6.50;99.90;;;;;;5897881;24;20028;-81
2023/02/13 09:12:28;;;;;;;;;;;;;;;;;;;;;
2023/02/13 09:15:35;;;;;;;36.97;20.55;;;6.70;99.90;;;;;;5896910;24;20021;-80
2023/02/13 09:18:35;;;;;;;32.58;20.63;;;6.70;99.90;;;;;;5898244;24;20029;-81
2023/02/13 09:25:05;;;;;;;;;;;;;;;;;;;;;
2023/02/13 09:31:00;;;;;;;35.17;19.63;;;6.80;99.90;;;;;;5814253;24;20118;-81
2023/02/13 09:33:56;;;;;;;34.03;19.05;;;6.80;99.90;;;;;;5868506;24;20084;-81
2023/02/13 09:36:41;;;;;;;33.10;20.45;;;6.80;99.90;;;;;;5902326;24;20025;-81
2023/02/13 09:39:15;;;;;;;35.30;19.92;;;6.90;99.90;;;;;;5873173;24;20029;-81
2023/02/13 09:41:51;;;;;;;33.22;19.48;;;6.90;99.90;;;;;;5874611;24;20548;-81
2023/02/13 09:44:34;;;;;;;30.85;19.20;;;7.00;99.90;;;;;;5897417;24;20021;-80
2023/02/13 09:47:06;;;;;;;31.15;19.33;;;7.10;99.90;;;;;;5955985;23;20047;-81
2023/02/13 09:49:40;;;;;;;34.10;19.90;;;7.00;99.90;;;;;;5985302;23;20101;-81
2023/02/13 09:52:08;;;;;;;39.00;19.93;;;7.00;99.90;;;;;;5985811;23;20436;-81
2023/02/13 09:54:34;;;;;;;37.13;20.65;;;7.00;99.90;;;;;;5983751;23;20712;-81
2023/02/13 09:57:14;;;;;;;38.20;21.23;;;7.00;99.90;;;;;;5984830;23;20082;-80
2023/02/13 10:00:18;;;;;;;34.33;20.67;;;7.10;99.90;;;;;;6010872;23;20022;-81
2023/02/13 10:02:56;;;;;;;33.70;20.58;;;7.10;99.90;;;;;;6014077;23;20395;-81
2023/02/13 10:05:56;;;;;;;33.65;20.80;;;7.20;99.90;;;;;;6015610;23;20094;-81
2023/02/13 10:08:58;;;;;;;37.28;22.50;;;7.30;99.90;;;;;;6047492;23;20194;-81
2023/02/13 10:12:06;;;;;;;34.22;21.15;;;7.20;99.90;;;;;;6035530;23;20018;-81
2023/02/13 10:14:51;;;;;;;33.78;21.27;;;7.10;99.90;;;;;;6012204;23;20123;-82
2023/02/13 10:17:23;;;;;;;38.80;20.63;;;7.10;99.90;;;;;;6012121;23;20091;-82
2023/02/13 10:23:56;;;;;;;34.45;20.90;;;7.20;99.90;;;;;;6032924;23;20065;-81
2023/02/13 10:26:45;;;;;;;31.38;20.05;;;7.30;99.90;;;;;;6037327;23;20098;-81
2023/02/13 10:32:13;;;;;;;32.20;20.20;;;7.20;99.90;;;;;;6037080;23;20098;-82
2023/02/13 10:34:52;;;;;;;34.60;21.48;;;7.30;99.90;;;;;;6035544;23;20465;-82
2023/02/13 10:37:36;;;;;;;32.20;20.98;;;7.20;99.90;;;;;;6013249;23;20058;-82
2023/02/13 10:40:46;;;;;;;35.60;21.52;;;7.30;99.90;;;;;;6049316;23;20030;-81
2023/02/13 10:43:48;;;;;;;38.55;21.05;;;7.40;99.90;;;;;;6086278;23;20112;-81
2023/02/13 10:46:35;;;;;;;34.65;20.45;;;7.30;99.90;;;;;;6033318;23;20042;-81
2023/02/13 10:49:24;;;;;;;34.85;21.85;;;7.40;99.90;;;;;;6033129;23;20365;-83
2023/02/13 10:52:32;;;;;;;34.22;20.90;;;7.50;99.90;;;;;;6059548;23;20049;-83
2023/02/13 10:55:32;;;;;;;42.30;20.67;;;7.40;99.90;;;;;;6034706;23;20054;-82
2023/02/13 10:58:41;;;;;;;32.00;20.17;;;7.50;99.90;;;;;;6035205;23;20086;-82
2023/02/13 11:01:24;;;;;;;40.33;20.42;;;7.50;99.90;;;;;;6056726;23;20038;-81
2023/02/13 11:04:06;;;;;;;32.28;20.33;;;7.50;99.90;;;;;;6044403;23;20011;-81
2023/02/13 11:06:36;;;;;;;31.35;20.27;;;7.40;99.90;;;;;;6037271;23;20505;-82
2023/02/13 11:09:06;;;;;;;30.80;20.20;;;7.50;99.90;;;;;;6036276;23;20019;-81
2023/02/13 11:11:52;;;;;;;31.60;20.17;;;7.40;99.90;;;;;;6057091;23;20070;-82
2023/02/13 11:14:21;;;;;;;31.83;20.05;;;7.40;99.90;;;;;;6112863;23;20060;-81
2023/02/13 11:17:13;;;;;;;30.38;19.90;;;7.50;99.90;;;;;;6171259;23;20017;-81
2023/02/13 11:19:53;;;;;;;37.15;21.17;;;7.50;99.90;;;;;;6121657;23;20063;-83
2023/02/13 11:22:47;;;;;;;32.90;20.55;;;7.50;99.90;;;;;;6120725;23;20057;-82
2023/02/13 11:25:54;;;;;;;33.25;21.13;;;7.60;99.90;;;;;;6097591;23;20056;-81
2023/02/13 11:28:20;;;;;;;33.10;19.83;;;7.40;99.90;;;;;;6122397;23;20018;-80
2023/02/13 11:30:54;;;;;;;32.22;20.85;;;7.60;99.90;;;;;;6120258;23;20018;-81
2023/02/13 11:33:27;;;;;;;33.65;20.83;;;7.70;99.90;;;;;;6122623;23;20017;-83
2023/02/13 11:36:21;;;;;;;33.97;21.42;;;7.70;99.90;;;;;;6124854;23;20024;-82
2023/02/13 11:38:57;;;;;;;33.78;21.25;;;7.80;99.90;;;;;;6132874;23;20076;-81
2023/02/13 11:41:30;;;;;;;31.38;21.15;;;7.70;99.90;;;;;;6178966;23;20053;-81
2023/02/13 11:44:03;;;;;;;34.17;21.27;;;7.70;99.90;;;;;;6168127;23;20236;-81
2023/02/13 11:53:59;;;;;;;;;;;7.90;99.90;;;;;;6003104;23;20057;-80
2023/02/13 11:56:45;;;;;;;37.85;22.02;;;7.90;99.90;;;;;;5947411;24;20001;-80
2023/02/13 12:03:09;;;;;;;35.83;21.88;;;7.80;99.90;;;;;;5815005;24;20023;-81
2023/02/13 12:06:38;;;;;;;33.35;20.83;;;7.90;99.90;;;;;;5814927;24;20060;-81
2023/02/13 12:23:08;;;;;;;29.98;19.98;;;8.20;99.90;;;;;;6097617;23;20695;-82
2023/02/13 12:30:38;;;;;;;31.60;20.52;;;8.40;99.90;;;;;;6084677;23;20126;-80
2023/02/13 12:33:38;;;;;;;35.53;20.08;;;8.40;99.90;;;;;;5979126;24;20489;-78
2023/02/13 12:36:51;;;;;;;33.33;20.55;;;8.40;99.90;;;;;;5956613;24;20457;-80
2023/02/13 12:47:28;;;;;;;35.60;20.95;;;8.40;99.90;;;;;;5926906;24;20092;-81
2023/02/13 12:50:37;;;;;;;32.28;21.60;;;8.30;99.90;;;;;;5926621;24;20032;-81
2023/02/13 12:53:50;;;;;;;34.97;20.98;;;8.40;99.90;;;;;;5906115;24;20044;-81
2023/02/13 12:56:54;;;;;;;31.98;19.85;;;8.30;99.90;;;;;;5904353;24;20380;-80
2023/02/13 13:00:00;;;;;;;33.05;21.85;;;8.60;99.90;;;;;;5963118;23;20058;-80
2023/02/13 13:02:43;;;;;;;32.13;20.33;;;8.50;99.90;;;;;;6018876;23;20459;-80
2023/02/13 13:05:37;;;;;;;32.78;20.13;;;8.50;99.90;;;;;;6040987;23;20036;-82
2023/02/13 13:08:25;;;;;;;29.05;19.70;;;8.50;99.90;;;;;;6243846;22;20019;-79
2023/02/13 13:10:59;;;;;;;34.55;20.58;;;8.60;99.90;;;;;;6250383;22;20098;-81
2023/02/13 13:13:52;;;;;;;32.53;20.30;;;8.40;99.90;;;;;;6252169;22;20502;-81
2023/02/13 13:16:51;;;;;;;34.58;21.13;;;8.50;99.90;;;;;;6276958;22;20011;-81
2023/02/13 13:19:35;;;;;;;30.35;20.10;;;8.50;99.90;;;;;;6248606;22;20015;-81
2023/02/13 13:22:34;;;;;;;30.60;19.83;;;8.50;99.90;;;;;;6242294;22;20081;-81
2023/02/13 13:25:31;;;;;;;30.27;20.23;;;8.70;99.90;;;;;;6242901;22;20018;-81
2023/02/13 13:28:23;;;;;;;29.83;20.42;;;8.60;99.90;;;;;;6245071;22;20129;-81
2023/02/13 13:30:50;;;;;;;38.42;20.90;;;8.60;99.90;;;;;;6242674;22;20012;-81
2023/02/13 13:33:24;;;;;;;31.35;20.30;;;8.50;99.90;;;;;;6242137;22;20329;-81
2023/02/13 13:36:24;;;;;;;30.20;19.23;;;8.60;99.90;;;;;;6268550;22;20452;-81
2023/02/13 13:38:59;;;;;;;34.83;19.75;;;8.60;99.90;;;;;;6240992;22;20015;-81
2023/02/13 13:41:40;;;;;;;34.60;20.42;;;8.60;99.90;;;;;;6240678;22;20015;-80
2023/02/13 13:44:19;;;;;;;33.10;20.25;;;8.60;99.90;;;;;;6245498;22;20508;-81
2023/02/13 13:47:25;;;;;;;30.85;19.88;;;8.80;99.90;;;;;;6264503;22;20113;-81
2023/02/13 13:49:59;;;;;;;32.78;19.90;;;8.70;99.90;;;;;;6243420;22;20096;-81
2023/02/13 13:52:29;;;;;;;30.30;20.08;;;8.80;99.90;;;;;;6267600;22;20416;-79
2023/02/13 13:54:59;;;;;;;34.55;21.05;;;8.80;99.90;;;;;;6264177;22;20081;-80
2023/02/13 13:57:45;;;;;;;37.45;21.60;;;9.00;99.90;;;;;;6268165;22;20034;-79
2023/02/13 14:00:10;;;;;;;33.97;21.48;;;8.90;99.90;;;;;;6227721;22;20558;-80
2023/02/13 14:02:51;;;;;;;33.08;20.27;;;8.80;99.90;;;;;;6241590;22;20097;-80
2023/02/13 14:05:16;;;;;;;32.28;20.48;;;9.00;99.90;;;;;;6267264;22;20377;-80
2023/02/13 14:07:42;;;;;;;32.65;21.38;;;9.00;99.90;;;;;;6266763;22;20154;-80
2023/02/13 14:10:28;;;;;;;31.08;20.63;;;9.00;99.90;;;;;;6267155;22;20020;-81
2023/02/13 14:12:57;;;;;;;32.92;21.83;;;9.00;99.90;;;;;;6184417;23;20052;-80
2023/02/13 14:15:41;;;;;;;37.10;21.92;;;8.90;99.90;;;;;;6159613;23;20031;-80
2023/02/13 14:18:23;;;;;;;34.35;21.48;;;9.10;99.90;;;;;;6179902;23;20493;-80
2023/02/13 14:20:57;;;;;;;36.33;22.83;;;9.00;99.90;;;;;;6153686;23;20749;-81
2023/02/13 14:23:41;;;;;;;36.30;22.30;;;8.80;99.90;;;;;;6159087;23;20012;-81
2023/02/13 14:26:16;;;;;;;31.00;21.50;;;8.90;99.90;;;;;;6156344;23;20111;-82
2023/02/13 14:28:50;;;;;;;33.88;21.92;;;8.90;99.90;;;;;;6154431;23;20024;-80
2023/02/13 14:31:37;;;;;;;31.83;21.25;;;8.90;99.90;;;;;;6154586;23;20096;-81
2023/02/13 14:34:09;;;;;;;36.22;22.90;;;9.00;99.90;;;;;;6178202;23;20290;-80
2023/02/13 14:36:41;;;;;;;35.95;22.85;;;8.90;99.90;;;;;;6181866;23;20016;-80
2023/02/13 14:39:22;;;;;;;36.50;22.83;;;8.80;99.90;;;;;;6151877;23;20020;-80
2023/02/13 14:41:52;;;;;;;34.90;22.95;;;9.00;99.90;;;;;;6152023;23;20552;-81
2023/02/13 14:44:20;;;;;;;36.63;23.77;;;9.00;99.90;;;;;;6180969;23;20048;-80
2023/02/13 14:46:48;;;;;;;34.42;23.52;;;8.90;99.90;;;;;;6178273;23;20923;-80
2023/02/13 14:49:23;;;;;;;33.88;22.30;;;9.00;99.90;;;;;;6162960;22;20023;-80
2023/02/13 14:51:50;;;;;;;;;;;8.90;99.90;;;;;;6241301;22;20018;-80
2023/02/13 14:54:33;;;;;;;36.60;23.80;;;8.90;99.90;;;;;;6242864;22;19995;-81
2023/02/13 14:57:21;;;;;;;35.45;23.30;;;9.00;99.90;;;;;;6240778;22;20069;-81
2023/02/13 15:00:00;;;;;;;35.38;23.15;;;8.80;99.90;;;;;;6266377;22;20022;-81
2023/02/13 15:02:38;;;;;;;40.13;24.42;;;8.90;99.90;;;;;;6264687;22;20022;-80
2023/02/13 15:05:13;;;;;;;39.30;25.20;;;8.90;99.90;;;;;;6268454;22;20015;-82
2023/02/13 15:07:58;;;;;;;37.65;24.63;;;8.80;99.90;;;;;;6241034;22;20081;-82
2023/02/13 15:14:13;;;;;;;36.28;24.20;;;8.70;99.90;;;;;;6153136;23;20025;-83
2023/02/13 15:16:45;;;;;;;39.10;23.50;;;8.80;99.90;;;;;;6169768;23;20123;-81
2023/02/13 15:19:16;;;;;;;39.67;24.48;;;8.90;99.90;;;;;;6133646;23;20682;-80
2023/02/13 15:21:55;;;;;;;39.22;25.40;;;8.80;99.90;;;;;;6123295;23;20017;-80
2023/02/13 15:24:22;;;;;;;37.85;24.98;;;8.80;99.90;;;;;;6122242;23;20091;-80
2023/02/13 15:27:03;;;;;;;42.28;24.95;;;8.60;99.90;;;;;;6120932;23;20028;-79
2023/02/13 15:29:30;;;;;;;39.30;24.38;;;8.60;99.90;;;;;;6146989;23;20429;-80
2023/02/13 15:32:00;;;;;;;37.35;23.98;;;8.70;99.90;;;;;;6123886;23;20048;-81
2023/02/13 15:34:33;;;;;;;40.17;24.15;;;8.50;99.90;;;;;;6125230;23;20072;-81
2023/02/13 15:36:59;;;;;;;36.88;23.42;;;8.50;99.90;;;;;;6123118;23;20118;-80
2023/02/13 15:39:28;;;;;;;35.80;22.95;;;8.70;99.90;;;;;;6120985;23;20831;-80
2023/02/13 15:42:07;;;;;;;37.85;23.80;;;8.70;99.90;;;;;;6146576;23;20017;-81
2023/02/13 15:44:36;;;;;;;40.40;25.05;;;8.70;99.90;;;;;;6120642;23;20058;-80
2023/02/13 15:47:10;;;;;;;38.67;23.85;;;8.60;99.90;;;;;;6145793;23;20430;-82
2023/02/13 15:49:49;;;;;;;40.42;26.10;;;8.60;99.90;;;;;;6149408;22;20021;-81
2023/02/13 15:52:35;;;;;;;34.38;23.27;;;8.60;99.90;;;;;;6239765;22;20780;-81
2023/02/13 15:55:15;;;;;;;35.80;23.63;;;8.50;99.90;;;;;;6239419;22;20091;-81
2023/02/13 15:58:25;;;;;;;34.47;23.85;;;8.70;99.90;;;;;;6241689;22;20025;-79
2023/02/13 16:01:02;;;;;;;34.58;23.15;;;8.70;99.90;;;;;;6239052;22;20015;-81
2023/02/13 16:07:04;;;;;;;37.63;22.83;;;8.70;99.90;;;;;;6264041;22;20088;-81
2023/02/13 16:10:54;;;;;;;;;;;;;;;;;;;;;
2023/02/13 16:17:50;;;;;;;34.60;22.52;;;8.40;99.90;;;;;;6116607;23;20101;-81
2023/02/13 16:20:37;;;;;;;34.17;22.35;;;8.50;99.90;;;;;;6066723;23;20358;-81
2023/02/13 16:23:14;;;;;;;33.10;22.63;;;8.50;99.90;;;;;;6090407;23;20149;-81
2023/02/13 16:25:45;;;;;;;35.42;23.52;;;8.50;99.90;;;;;;6093859;23;20793;-80
2023/02/13 16:28:31;;;;;;;35.35;22.95;;;8.50;99.90;;;;;;6069327;23;20018;-80
2023/02/13 16:31:07;;;;;;;35.22;23.45;;;8.40;99.90;;;;;;6090885;23;20031;-82
2023/02/13 16:37:38;;;;;;;35.00;23.15;;;8.10;99.90;;;;;;6087237;23;20026;-81
2023/02/13 16:40:37;;;;;;;36.28;24.42;;;8.10;99.90;;;;;;6053838;23;20010;-81
2023/02/13 16:43:37;;;;;;;36.65;23.83;;;8.10;99.90;;;;;;6150390;23;20321;-82
2023/02/13 16:46:46;;;;;;;36.05;23.63;;;8.00;99.90;;;;;;6151899;23;20016;-82
2023/02/13 16:49:43;;;;;;;39.67;26.40;;;8.00;99.90;;;;;;6178708;23;20038;-82
2023/02/13 16:52:39;;;;;;;37.70;25.15;;;8.00;99.90;;;;;;6090372;23;20446;-81
2023/02/13 16:55:14;;;;;;;44.50;26.58;;;7.80;99.90;;;;;;6068937;23;20081;-81
2023/02/13 16:57:42;;;;;;;39.72;25.55;;;7.80;99.90;;;;;;6068530;23;20013;-81
2023/02/13 17:00:20;;;;;;;40.22;24.92;;;7.60;99.90;;;;;;6091672;23;20022;-82
2023/02/13 17:02:57;;;;;;;39.25;25.42;;;7.50;99.90;;;;;;6067114;23;20021;-80
2023/02/13 17:05:41;;;;;;;43.08;25.05;;;7.60;99.90;;;;;;6166394;23;20013;-80
2023/02/13 17:08:12;;;;;;;44.53;25.77;;;7.30;99.90;;;;;;6150669;23;20513;-80
2023/02/13 17:11:05;;;;;;;41.00;24.77;;;7.20;99.90;;;;;;6066586;23;20486;-80
2023/02/13 17:13:39;;;;;;;39.67;24.40;;;7.30;99.90;;;;;;6066265;23;20024;-80
2023/02/13 17:16:07;;;;;;;40.88;24.50;;;7.20;99.90;;;;;;6033135;23;20029;-81
2023/02/13 17:18:34;;;;;;;42.53;24.83;;;7.10;99.90;;;;;;6033154;23;20015;-80
2023/02/13 17:21:00;;;;;;;46.03;26.58;;;6.90;99.90;;;;;;6034431;23;20046;-79
2023/02/13 17:23:26;;;;;;;49.83;26.17;;;7.00;99.90;;;;;;6031437;23;20023;-81
2023/02/13 17:25:52;;;;;;;39.53;24.65;;;6.70;99.90;;;;;;6032529;23;20058;-80
2023/02/13 17:28:21;;;;;;;40.28;25.40;;;6.60;99.90;;;;;;6054494;23;20032;-79
2023/02/13 17:30:49;;;;;;;42.20;26.73;;;6.50;99.90;;;;;;6128063;23;20035;-79
2023/02/13 17:33:26;;;;;;;40.17;24.98;;;6.50;99.90;;;;;;6152203;23;20057;-79
2023/02/13 17:35:53;;;;;;;42.00;26.30;;;6.30;99.90;;;;;;6125118;23;20009;-79
2023/02/13 17:38:19;;;;;;;42.85;27.80;;;6.50;99.90;;;;;;6149863;23;20017;-80
2023/02/13 17:40:45;;;;;;;46.33;27.52;;;6.40;99.90;;;;;;6156936;23;20837;-79
2023/02/13 17:43:12;;;;;;;46.95;28.10;;;6.50;99.90;;;;;;6184256;23;20048;-79
2023/02/13 17:45:38;;;;;;;48.08;27.42;;;6.30;99.90;;;;;;6158022;23;20413;-79
2023/02/13 17:48:04;;;;;;;42.40;26.70;;;6.30;99.90;;;;;;6212226;22;20093;-78
2023/02/13 17:50:31;;;;;;;43.97;27.85;;;6.40;99.90;;;;;;6265316;22;20336;-78
2023/02/13 17:53:01;;;;;;;43.58;26.23;;;6.40;99.90;;;;;;6265640;22;20050;-80
2023/02/13 17:55:31;;;;;;;45.22;27.98;;;6.10;99.90;;;;;;6268257;22;20087;-81
2023/02/13 17:57:57;;;;;;;49.78;30.42;;;5.90;99.90;;;;;;6241379;22;20447;-80
2023/02/13 18:00:29;;;;;;;49.95;29.58;;;6.20;99.90;;;;;;6238391;22;20036;-81
2023/02/13 18:02:56;;;;;;;51.47;31.08;;;6.10;99.90;;;;;;6267480;22;20343;-81
2023/02/13 18:05:22;;;;;;;54.85;31.80;;;6.00;99.90;;;;;;6243393;22;20185;-80
2023/02/13 18:07:50;;;;;;;52.53;29.90;;;6.20;99.90;;;;;;6250219;22;20103;-81
2023/02/13 18:10:24;;;;;;;55.95;29.77;;;6.10;99.90;;;;;;6220753;22;20101;-81
2023/02/13 18:12:55;;;;;;;49.08;29.50;;;5.90;99.90;;;;;;6193075;22;20022;-81
2023/02/13 18:15:23;;;;;;;49.72;29.33;;;6.00;99.90;;;;;;6219486;22;20007;-81
2023/02/13 18:17:49;;;;;;;48.97;29.00;;;5.80;99.90;;;;;;6217996;22;20073;-80
2023/02/13 18:20:17;;;;;;;50.28;29.52;;;5.70;99.90;;;;;;6218563;22;20026;-80
2023/02/13 18:22:43;;;;;;;51.10;30.08;;;5.80;99.90;;;;;;6219280;22;20022;-80
2023/02/13 18:25:09;;;;;;;54.00;30.17;;;5.70;99.90;;;;;;6218017;22;20022;-81
2023/02/13 18:27:35;;;;;;;52.15;30.10;;;5.80;99.90;;;;;;6219764;22;20022;-81
2023/02/13 18:34:20;;;;;;;49.20;28.70;;;5.70;99.90;;;;;;6284225;22;20053;-80
2023/02/13 18:36:47;;;;;;;48.72;28.83;;;5.40;99.90;;;;;;6269109;22;20022;-80
2023/02/13 18:39:14;;;;;;;47.88;27.70;;;5.40;99.90;;;;;;6224527;22;20053;-80
2023/02/13 18:41:39;;;;;;;54.83;30.55;;;5.50;99.90;;;;;;6221429;22;20019;-80
2023/02/13 18:44:05;;;;;;;55.08;31.60;;;5.90;99.90;;;;;;6247182;22;20019;-80
2023/02/13 18:46:31;;;;;;;56.13;31.58;;;5.50;99.90;;;;;;6219331;22;20149;-79
2023/02/13 18:48:57;;;;;;;55.30;32.80;;;5.60;99.90;;;;;;6246308;22;20012;-80
2023/02/13 18:51:23;;;;;;;58.00;33.13;;;5.30;99.90;;;;;;6221211;22;20012;-79
2023/02/13 18:53:51;;;;;;;55.35;32.40;;;5.60;99.90;;;;;;6215634;22;20011;-82
2023/02/13 18:56:19;;;;;;;60.28;33.65;;;5.60;99.90;;;;;;6217356;22;20012;-80
2023/02/13 18:58:45;;;;;;;59.38;33.92;;;5.50;99.90;;;;;;6242818;22;20016;-80
2023/02/13 19:01:18;;;;;;;62.63;34.53;;;5.40;99.90;;;;;;6244277;22;20142;-81
2023/02/13 19:03:45;;;;;;;61.15;33.85;;;5.70;99.90;;;;;;6244963;22;20039;-79
2023/02/13 19:06:14;;;;;;;63.50;35.20;;;5.70;99.90;;;;;;6219237;22;20470;-81
2023/02/13 19:08:40;;;;;;;59.28;35.00;;;5.30;99.90;;;;;;6248763;22;20022;-81
2023/02/13 19:11:09;;;;;;;59.88;34.72;;;5.30;99.90;;;;;;6268135;22;20011;-80
2023/02/13 19:13:35;;;;;;;59.72;35.30;;;5.50;99.90;;;;;;6242571;22;20007;-81
2023/02/13 19:16:05;;;;;;;59.97;35.38;;;5.30;99.90;;;;;;6265580;22;20018;-80
2023/02/13 19:18:34;;;;;;;62.13;34.25;;;5.20;99.90;;;;;;6239066;22;20026;-80
2023/02/13 19:21:01;;;;;;;61.72;34.67;;;5.30;99.90;;;;;;6266142;22;20341;-81
2023/02/13 19:23:26;;;;;;;63.35;34.42;;;5.10;99.90;;;;;;6268022;22;20022;-79
2023/02/13 19:25:52;;;;;;;61.30;35.30;;;5.50;99.90;;;;;;6243415;22;20094;-80
2023/02/13 19:28:18;;;;;;;64.97;37.17;;;5.40;99.90;;;;;;6269510;22;20027;-81
2023/02/13 19:30:44;;;;;;;68.53;36.97;;;5.50;99.90;;;;;;6240610;22;20027;-79
2023/02/13 19:33:09;;;;;;;66.38;36.55;;;5.10;99.90;;;;;;6264470;22;20019;-79
2023/02/13 19:35:35;;;;;;;67.70;36.63;;;5.30;99.90;;;;;;6265853;22;20058;-78
2023/02/13 19:38:01;;;;;;;68.22;38.53;;;5.00;99.90;;;;;;6265426;22;20015;-78
2023/02/13 19:40:28;;;;;;;69.30;38.35;;;5.10;99.90;;;;;;6265313;22;20912;-80
2023/02/13 19:42:53;;;;;;;67.68;39.13;;;5.60;99.90;;;;;;6266114;22;20316;-81
2023/02/13 19:45:19;;;;;;;64.95;36.80;;;5.30;99.90;;;;;;6267733;22;20015;-81
2023/02/13 19:47:45;;;;;;;69.53;38.17;;;5.30;99.90;;;;;;6265547;22;20522;-81
2023/02/13 19:50:11;;;;;;;70.82;39.10;;;5.50;99.90;;;;;;6237678;22;20012;-80
2023/02/13 19:52:37;;;;;;;70.93;39.60;;;5.10;99.90;;;;;;6265841;22;20019;-80
2023/02/13 19:55:03;;;;;;;75.53;40.60;;;5.20;99.90;;;;;;6265445;22;20380;-79
2023/02/13 19:57:28;;;;;;;77.80;40.35;;;5.50;99.90;;;;;;6267583;22;20452;-81
2023/02/13 19:59:54;;;;;;;77.05;40.65;;;4.90;99.90;;;;;;6240401;22;20096;-81
2023/02/13 20:02:21;;;;;;;71.00;39.10;;;5.40;99.90;;;;;;6240805;22;20019;-81
2023/02/13 20:04:47;;;;;;;75.13;39.55;;;5.00;99.90;;;;;;6240268;22;20372;-79
2023/02/13 20:07:13;;;;;;;72.63;40.40;;;4.90;99.90;;;;;;6240495;22;20298;-79
2023/02/13 20:09:39;;;;;;;80.97;40.90;;;5.30;99.90;;;;;;6239375;22;20019;-80
2023/02/13 20:12:06;;;;;;;79.40;39.90;;;5.30;99.90;;;;;;6264925;22;20399;-80
2023/02/13 20:14:32;;;;;;;76.97;41.13;;;5.10;99.90;;;;;;6264690;22;20012;-80
2023/02/13 20:17:03;;;;;;;79.38;42.25;;;5.00;99.90;;;;;;6240768;22;20016;-81
2023/02/13 20:19:29;;;;;;;81.22;41.33;;;5.20;99.90;;;;;;6240458;22;20019;-80
2023/02/13 20:21:55;;;;;;;75.57;42.85;;;4.90;99.90;;;;;;6239873;22;20106;-80
2023/02/13 20:24:21;;;;;;;82.38;42.72;;;5.00;99.90;;;;;;6235492;22;20081;-79
2023/02/13 20:26:47;;;;;;;79.93;41.75;;;5.20;99.90;;;;;;6240509;22;20055;-80
2023/02/13 20:29:14;;;;;;;81.53;42.90;;;4.70;99.90;;;;;;6239398;22;20015;-78
2023/02/13 20:31:40;;;;;;;82.32;43.65;;;5.20;99.90;;;;;;6267817;22;20015;-78
2023/02/13 20:34:06;;;;;;;77.93;43.75;;;5.00;99.90;;;;;;6265686;22;20651;-80
2023/02/13 20:36:32;;;;;;;80.63;42.35;;;5.10;99.90;;;;;;6243348;22;20330;-79
2023/02/13 20:39:06;;;;;;;76.07;41.30;;;4.40;99.90;;;;;;6269520;22;20020;-79
2023/02/13 20:41:34;;;;;;;88.88;45.00;;;4.60;99.90;;;;;;6269406;22;20016;-80
2023/02/13 20:44:03;;;;;;;81.60;43.10;;;4.30;99.90;;;;;;6244779;22;20450;-79
2023/02/13 20:46:30;;;;;;;74.57;41.35;;;4.40;99.90;;;;;;6270732;22;20381;-79
2023/02/13 20:48:56;;;;;;;78.20;40.50;;;4.40;99.90;;;;;;6270405;22;20051;-79
2023/02/13 20:51:21;;;;;;;81.22;44.13;;;4.50;99.90;;;;;;6244714;22;20294;-80
2023/02/13 20:53:47;;;;;;;84.13;43.30;;;4.60;99.90;;;;;;6243693;22;20012;-77
2023/02/13 20:56:16;;;;;;;83.15;43.38;;;4.00;99.90;;;;;;6270764;22;20034;-81
2023/02/13 20:58:42;;;;;;;85.28;42.33;;;4.00;99.90;;;;;;6271431;22;20065;-77
2023/02/13 21:01:11;;;;;;;87.88;44.13;;;4.40;99.90;;;;;;6269834;22;20064;-79
2023/02/13 21:03:37;;;;;;;86.65;44.28;;;4.40;99.90;;;;;;6268984;22;20094;-79
2023/02/13 21:06:03;;;;;;;78.47;41.10;;;4.40;99.90;;;;;;6244874;22;20105;-80
2023/02/13 21:08:29;;;;;;;95.55;44.97;;;4.10;99.90;;;;;;6268042;22;20019;-79
2023/02/13 21:11:03;;;;;;;91.50;44.75;;;3.90;99.90;;;;;;6267988;22;20102;-79
2023/02/13 21:13:31;;;;;;;92.07;45.05;;;3.90;99.90;;;;;;6270282;22;20022;-81
2023/02/13 21:16:21;;;;;;;98.03;46.75;;;4.10;99.90;;;;;;6270141;22;20104;-79
2023/02/13 21:18:49;;;;;;;110.50;48.03;;;4.00;99.90;;;;;;6242240;22;20137;-82
2023/02/13 21:21:15;;;;;;;113.55;48.83;;;4.00;99.90;;;;;;6268918;22;20296;-80
2023/02/13 21:23:41;;;;;;;104.93;47.35;;;4.40;99.90;;;;;;6242852;22;20050;-81
2023/02/13 21:26:10;;;;;;;105.00;46.65;;;4.50;99.90;;;;;;6269735;22;20019;-78
2023/02/13 21:28:37;;;;;;;94.10;44.60;;;4.10;99.90;;;;;;6268563;22;20103;-79
2023/02/13 21:31:09;;;;;;;102.25;45.75;;;4.20;99.90;;;;;;6269253;22;20110;-81
2023/02/13 21:33:35;;;;;;;101.97;46.67;;;4.30;99.90;;;;;;6269348;22;20007;-79
2023/02/13 21:36:02;;;;;;;99.25;45.05;;;4.10;99.90;;;;;;6270813;22;20045;-79
2023/02/13 21:38:28;;;;;;;100.22;46.28;;;4.00;99.90;;;;;;6247220;22;20011;-80
2023/02/13 21:40:54;;;;;;;95.45;45.35;;;4.50;99.90;;;;;;6243401;22;20340;-78
2023/02/13 21:43:21;;;;;;;120.30;51.65;;;4.30;99.90;;;;;;6245189;22;20100;-80
2023/02/13 21:45:47;;;;;;;110.15;46.97;;;4.50;99.90;;;;;;6247253;22;20043;-78
2023/02/13 21:48:12;;;;;;;98.28;45.92;;;4.10;99.90;;;;;;6244103;22;20076;-80
2023/02/13 21:50:38;;;;;;;96.45;45.15;;;4.00;99.90;;;;;;6242663;22;20012;-81
2023/02/13 21:53:04;;;;;;;108.03;47.78;;;4.00;99.90;;;;;;6273079;22;20305;-81
2023/02/13 21:55:31;;;;;;;101.65;45.03;;;4.50;99.90;;;;;;6245120;22;20032;-78
2023/02/13 21:57:56;;;;;;;102.22;46.83;;;4.20;99.90;;;;;;6269639;22;20780;-82
2023/02/13 22:00:22;;;;;;;101.95;45.67;;;4.30;99.90;;;;;;6243977;22;20023;-78
2023/02/13 22:02:48;;;;;;;98.70;44.80;;;4.30;99.90;;;;;;6273264;22;20094;-79
2023/02/13 22:05:14;;;;;;;97.63;44.97;;;4.10;99.90;;;;;;6248721;22;20505;-80
2023/02/13 22:08:08;;;;;;;115.28;47.78;;;4.00;99.90;;;;;;6258071;22;20026;-78
2023/02/13 22:10:25;;;;;;;114.28;47.97;;;3.90;99.90;;;;;;6297538;22;20068;-79
2023/02/13 22:12:52;;;;;;;91.63;44.03;;;3.70;99.90;;;;;;6280658;22;20058;-80
2023/02/13 22:15:18;;;;;;;101.35;45.78;;;3.80;99.90;;;;;;6279157;22;20012;-79
2023/02/13 22:17:44;;;;;;;87.85;42.22;;;4.20;99.90;;;;;;6250792;22;20042;-79